createdAt,value
2024-02-18T00:02:09.388Z,7.29
2024-02-18T00:04:36.019Z,7.26
2024-02-18T00:07:03.617Z,7.29
2024-02-18T00:09:31.002Z,7.29
2024-02-18T00:11:57.945Z,7.21
2024-02-18T00:14:24.651Z,7.05
2024-02-18T00:16:51.338Z,7.07
2024-02-18T00:19:18.074Z,7.06
2024-02-18T00:21:44.864Z,7.06
2024-02-18T00:24:11.723Z,7.02
2024-02-18T00:26:48.917Z,7.05
2024-02-18T00:29:24.672Z,7.06
2024-02-18T00:31:51.277Z,7.08
2024-02-18T00:34:24.755Z,7.07
2024-02-18T00:36:52.758Z,7.07
2024-02-18T00:39:19.843Z,6.95
2024-02-18T00:41:46.460Z,6.97
2024-02-18T00:44:13.254Z,6.93
2024-02-18T00:46:47.517Z,6.87
2024-02-18T00:49:20.807Z,6.85
2024-02-18T00:51:47.625Z,6.84
2024-02-18T00:54:14.749Z,6.81
2024-02-18T00:56:41.434Z,6.84
2024-02-18T00:59:08.087Z,6.84
2024-02-18T01:01:34.975Z,6.85
2024-02-18T01:04:02.391Z,6.84
2024-02-18T01:06:29.111Z,6.82
2024-02-18T01:08:55.604Z,6.77
2024-02-18T01:11:22.295Z,6.82
2024-02-18T01:13:49.017Z,6.81
2024-02-18T01:16:15.786Z,6.74
2024-02-18T01:18:44.267Z,6.80
2024-02-18T01:21:11.985Z,6.76
2024-02-18T01:23:38.554Z,6.74
2024-02-18T01:26:05.566Z,6.64
2024-02-18T01:28:32.112Z,6.57
2024-02-18T01:30:59.039Z,6.61
2024-02-18T01:33:25.715Z,6.54
2024-02-18T01:35:52.368Z,6.52
2024-02-18T01:38:18.991Z,6.54
2024-02-18T01:40:45.643Z,6.51
2024-02-18T01:43:14.448Z,6.50
2024-02-18T01:45:41.407Z,6.46
2024-02-18T01:48:09.270Z,6.49
2024-02-18T01:50:36.306Z,6.51
2024-02-18T01:53:04.273Z,6.53
2024-02-18T01:55:33.238Z,6.53
2024-02-18T01:58:01.432Z,6.53
2024-02-18T02:00:29.058Z,6.53
2024-02-18T02:02:55.841Z,6.52
2024-02-18T02:05:23.017Z,6.52
2024-02-18T02:07:53.020Z,6.54
2024-02-18T02:10:20.854Z,6.56
2024-02-18T02:12:48.399Z,6.58
2024-02-18T02:15:15.439Z,6.59
2024-02-18T02:17:42.071Z,6.60
2024-02-18T02:20:10.714Z,6.63
2024-02-18T02:22:38.757Z,6.58
2024-02-18T02:25:07.403Z,6.64
2024-02-18T02:27:41.789Z,6.70
2024-02-18T02:30:08.814Z,6.72
2024-02-18T02:32:38.420Z,6.71
2024-02-18T02:35:05.760Z,6.80
2024-02-18T02:37:32.510Z,6.81
2024-02-18T02:39:59.419Z,6.86
2024-02-18T02:42:26.387Z,6.88
2024-02-18T02:44:53.022Z,6.83
2024-02-18T02:47:19.631Z,6.84
2024-02-18T02:49:46.749Z,6.75
2024-02-18T02:52:13.439Z,6.78
2024-02-18T02:54:40.614Z,6.77
2024-02-18T02:57:07.540Z,6.74
2024-02-18T02:59:34.212Z,6.64
2024-02-18T03:02:00.975Z,6.64
2024-02-18T03:04:28.216Z,6.56
2024-02-18T03:06:55.029Z,6.51
2024-02-18T03:09:22.178Z,6.52
2024-02-18T03:11:49.110Z,6.48
2024-02-18T03:14:15.779Z,6.53
2024-02-18T03:16:42.598Z,6.56
2024-02-18T03:19:09.453Z,6.51
2024-02-18T03:21:36.465Z,6.53
2024-02-18T03:24:03.377Z,6.50
2024-02-18T03:26:30.966Z,6.48
2024-02-18T03:28:57.610Z,6.46
2024-02-18T03:31:24.208Z,6.49
2024-02-18T03:33:50.910Z,6.44
2024-02-18T03:36:17.673Z,6.41
2024-02-18T03:38:44.268Z,6.40
2024-02-18T03:41:10.952Z,6.43
2024-02-18T03:43:37.585Z,6.43
2024-02-18T03:46:04.427Z,6.32
2024-02-18T03:48:31.357Z,6.24
2024-02-18T03:50:58.275Z,6.04
2024-02-18T03:53:24.862Z,5.98
2024-02-18T03:55:51.791Z,5.94
2024-02-18T03:58:18.484Z,5.80
2024-02-18T04:00:48.024Z,5.71
2024-02-18T04:03:15.371Z,5.52
2024-02-18T04:05:45.471Z,5.60
2024-02-18T04:08:12.265Z,5.65
2024-02-18T04:10:38.954Z,5.52
2024-02-18T04:13:05.734Z,5.40
2024-02-18T04:15:32.612Z,5.42
2024-02-18T04:17:59.311Z,5.49
2024-02-18T04:20:26.010Z,5.36
2024-02-18T04:22:52.716Z,5.40
2024-02-18T04:25:19.304Z,5.39
2024-02-18T04:27:46.037Z,5.40
2024-02-18T04:30:13.016Z,5.39
2024-02-18T04:32:39.612Z,5.43
2024-02-18T04:35:06.558Z,5.42
2024-02-18T04:37:33.330Z,5.43
2024-02-18T04:40:00.089Z,5.46
2024-02-18T04:42:26.762Z,5.33
2024-02-18T04:44:53.367Z,5.35
2024-02-18T04:47:20.034Z,5.33
2024-02-18T04:49:46.942Z,5.39
2024-02-18T04:52:13.734Z,5.43
2024-02-18T04:54:40.894Z,5.39
2024-02-18T04:57:08.376Z,5.27
2024-02-18T04:59:37.975Z,5.23
2024-02-18T05:02:04.806Z,5.26
2024-02-18T05:04:32.964Z,5.28
2024-02-18T05:07:00.768Z,5.25
2024-02-18T05:09:27.684Z,5.17
2024-02-18T05:11:54.334Z,5.17
2024-02-18T05:14:21.468Z,5.23
2024-02-18T05:16:48.196Z,5.25
2024-02-18T05:19:15.630Z,5.17
2024-02-18T05:21:43.509Z,5.23
2024-02-18T05:24:11.346Z,5.15
2024-02-18T05:26:37.915Z,5.16
2024-02-18T05:29:04.690Z,5.19
2024-02-18T05:31:31.445Z,5.22
2024-02-18T05:33:58.510Z,5.24
2024-02-18T05:36:25.353Z,5.18
2024-02-18T05:38:52.181Z,5.21
2024-02-18T05:41:19.220Z,5.22
2024-02-18T05:43:45.785Z,5.23
2024-02-18T05:46:12.552Z,5.32
2024-02-18T05:48:40.322Z,5.34
2024-02-18T05:51:07.981Z,5.33
2024-02-18T05:53:35.138Z,5.27
2024-02-18T05:56:02.357Z,5.31
2024-02-18T05:58:28.956Z,5.25
2024-02-18T06:00:55.618Z,5.22
2024-02-18T06:03:22.559Z,5.21
2024-02-18T06:05:49.431Z,5.19
2024-02-18T06:08:16.087Z,5.13
2024-02-18T06:10:42.938Z,5.25
2024-02-18T06:13:09.791Z,5.26
2024-02-18T06:15:36.568Z,5.29
2024-02-18T06:18:03.533Z,5.29
2024-02-18T06:20:30.668Z,5.37
2024-02-18T06:22:57.624Z,5.35
2024-02-18T06:25:24.720Z,5.43
2024-02-18T06:27:52.127Z,5.50
2024-02-18T06:30:19.457Z,5.48
2024-02-18T06:32:46.085Z,5.48
2024-02-18T06:35:12.861Z,5.50
2024-02-18T06:37:40.820Z,5.48
2024-02-18T06:40:08.057Z,5.43
2024-02-18T06:42:34.797Z,5.53
2024-02-18T06:45:01.439Z,5.53
2024-02-18T06:47:28.148Z,5.59
2024-02-18T06:49:54.942Z,5.67
2024-02-18T06:52:23.040Z,5.76
2024-02-18T06:54:49.962Z,5.78
2024-02-18T06:57:16.643Z,5.87
2024-02-18T06:59:43.628Z,6.03
2024-02-18T07:02:11.251Z,6.15
2024-02-18T07:04:38.906Z,6.29
2024-02-18T07:07:05.508Z,6.44
2024-02-18T07:09:32.245Z,6.54
2024-02-18T07:11:58.921Z,6.70
2024-02-18T07:14:25.492Z,6.85
2024-02-18T07:16:52.070Z,6.95
2024-02-18T07:19:18.873Z,7.10
2024-02-18T07:21:45.608Z,7.17
2024-02-18T07:24:12.251Z,7.29
2024-02-18T07:26:39.934Z,7.43
2024-02-18T07:29:06.627Z,7.51
2024-02-18T07:31:33.213Z,7.58
2024-02-18T07:34:00.048Z,7.70
2024-02-18T07:36:28.825Z,7.82
2024-02-18T07:38:57.200Z,7.89
2024-02-18T07:41:26.297Z,7.93
2024-02-18T07:43:53.179Z,7.99
2024-02-18T07:46:20.308Z,8.08
2024-02-18T07:48:47.087Z,8.17
2024-02-18T07:51:13.886Z,8.29
2024-02-18T07:53:40.496Z,8.40
2024-02-18T07:56:07.486Z,8.54
2024-02-18T07:58:34.056Z,8.63
2024-02-18T08:01:00.828Z,8.63
2024-02-18T08:03:27.575Z,8.77
2024-02-18T08:05:54.184Z,8.88
2024-02-18T08:08:20.914Z,8.95
2024-02-18T08:10:48.405Z,9.05
2024-02-18T08:13:15.206Z,9.08
2024-02-18T08:15:41.946Z,9.16
2024-02-18T08:18:10.067Z,9.23
2024-02-18T08:20:41.599Z,9.23
2024-02-18T08:23:08.923Z,9.27
2024-02-18T08:25:36.712Z,9.29
2024-02-18T08:28:03.682Z,9.38
2024-02-18T08:30:30.592Z,9.45
2024-02-18T08:32:57.367Z,9.50
2024-02-18T08:35:24.435Z,9.55
2024-02-18T08:37:54.061Z,9.56
2024-02-18T08:40:20.835Z,9.58
2024-02-18T08:42:47.509Z,9.60
2024-02-18T08:45:14.266Z,9.65
2024-02-18T08:47:40.979Z,9.68
2024-02-18T08:50:08.231Z,9.71
2024-02-18T08:52:34.935Z,9.79
2024-02-18T08:55:01.581Z,9.85
2024-02-18T08:57:28.209Z,9.93
2024-02-18T08:59:54.879Z,9.97
2024-02-18T09:02:22.137Z,10.05
2024-02-18T09:04:48.873Z,10.18
2024-02-18T09:07:15.797Z,10.27
2024-02-18T09:09:42.416Z,10.39
2024-02-18T09:12:09.096Z,10.50
2024-02-18T09:14:35.737Z,10.59
2024-02-18T09:17:03.348Z,10.70
2024-02-18T09:19:30.020Z,10.81
2024-02-18T09:21:56.725Z,10.94
2024-02-18T09:24:23.295Z,11.00
2024-02-18T09:26:49.883Z,11.09
2024-02-18T09:29:16.512Z,11.09
2024-02-18T09:31:43.832Z,11.14
2024-02-18T09:34:10.685Z,11.13
2024-02-18T09:36:37.448Z,11.19
2024-02-18T09:39:04.139Z,11.30
2024-02-18T09:41:32.300Z,11.37
2024-02-18T09:44:07.261Z,11.52
2024-02-18T09:46:38.516Z,11.66
2024-02-18T09:49:09.197Z,11.76
2024-02-18T09:51:36.938Z,11.87
2024-02-18T09:54:07.994Z,11.97
2024-02-18T09:56:34.772Z,12.08
2024-02-18T09:59:01.388Z,12.10
2024-02-18T10:01:28.676Z,12.09
2024-02-18T10:03:55.544Z,12.06
2024-02-18T10:06:22.365Z,12.04
2024-02-18T10:08:56.549Z,12.05
2024-02-18T10:11:23.839Z,11.96
2024-02-18T10:13:53.849Z,11.99
2024-02-18T10:16:20.537Z,12.03
2024-02-18T10:18:47.419Z,12.13
2024-02-18T10:21:15.792Z,12.23
2024-02-18T10:23:43.446Z,12.27
2024-02-18T10:26:12.988Z,12.32
2024-02-18T10:28:42.627Z,12.32
2024-02-18T10:31:10.976Z,12.34
2024-02-18T10:33:38.483Z,12.37
2024-02-18T10:36:10.971Z,12.38
2024-02-18T10:38:43.753Z,12.37
2024-02-18T10:41:31.434Z,12.42
2024-02-18T10:44:00.228Z,12.35
2024-02-18T10:46:28.202Z,12.29
2024-02-18T10:49:01.025Z,12.25
2024-02-18T10:51:40.769Z,12.25
2024-02-18T10:54:12.882Z,12.17
2024-02-18T10:56:41.868Z,11.48
2024-02-18T10:59:23.364Z,11.67
2024-02-18T11:01:56.862Z,11.78
2024-02-18T11:04:26.332Z,11.96
2024-02-18T11:06:55.205Z,12.06
2024-02-18T11:09:23.133Z,12.10
2024-02-18T11:11:52.077Z,12.12
2024-02-18T11:14:20.004Z,12.12
2024-02-18T11:16:48.867Z,12.19
2024-02-18T11:19:16.423Z,12.30
2024-02-18T11:21:48.712Z,12.34
2024-02-18T11:24:15.354Z,12.42
2024-02-18T11:26:41.956Z,12.46
2024-02-18T11:29:08.651Z,12.48
2024-02-18T11:31:35.696Z,12.48
2024-02-18T11:34:02.709Z,12.50
2024-02-18T11:36:29.636Z,12.56
2024-02-18T11:38:58.684Z,12.61
2024-02-18T11:41:33.375Z,12.64
2024-02-18T11:44:13.963Z,12.70
2024-02-18T11:46:42.909Z,12.75
2024-02-18T11:49:09.876Z,12.83
2024-02-18T11:51:37.851Z,12.88
2024-02-18T11:54:06.455Z,12.90
2024-02-18T11:56:33.350Z,12.92
2024-02-18T11:59:00.025Z,12.90
2024-02-18T12:01:27.761Z,12.92
2024-02-18T12:03:58.186Z,12.91
2024-02-18T12:06:25.628Z,12.92
2024-02-18T12:08:52.451Z,12.97
2024-02-18T12:11:19.146Z,13.01
2024-02-18T12:13:45.942Z,12.94
2024-02-18T12:16:12.977Z,12.97
2024-02-18T12:18:40.260Z,12.93
2024-02-18T12:21:08.206Z,12.96
2024-02-18T12:23:43.975Z,12.92
2024-02-18T12:26:10.741Z,12.90
2024-02-18T12:28:37.525Z,12.88
2024-02-18T12:31:04.270Z,12.82
2024-02-18T12:33:32.109Z,12.74
2024-02-18T12:35:59.137Z,12.72
2024-02-18T12:38:25.738Z,12.68
2024-02-18T12:40:56.883Z,12.68
2024-02-18T12:43:57.003Z,12.69
2024-02-18T12:46:13.320Z,12.72
2024-02-18T12:48:40.714Z,12.70
2024-02-18T12:51:15.382Z,12.75
2024-02-18T12:53:43.042Z,12.82
2024-02-18T12:56:11.117Z,12.83
2024-02-18T12:58:37.961Z,12.84
2024-02-18T13:01:09.458Z,12.87
2024-02-18T13:03:36.706Z,12.90
2024-02-18T13:06:04.112Z,12.98
2024-02-18T13:08:30.926Z,13.00
2024-02-18T13:10:58.466Z,12.96
2024-02-18T13:13:25.172Z,12.97
2024-02-18T13:15:53.245Z,12.98
2024-02-18T13:18:20.074Z,13.01
2024-02-18T13:20:46.806Z,13.02
2024-02-18T13:23:13.403Z,13.07
2024-02-18T13:25:40.134Z,13.10
2024-02-18T13:28:07.044Z,13.06
2024-02-18T13:30:33.879Z,13.08
2024-02-18T13:33:00.700Z,13.12
2024-02-18T13:35:27.310Z,13.11
2024-02-18T13:37:53.935Z,13.08
2024-02-18T13:40:20.723Z,13.00
2024-02-18T13:42:47.420Z,13.01
2024-02-18T13:45:14.164Z,13.00
2024-02-18T13:47:40.932Z,13.05
2024-02-18T13:50:09.058Z,13.12
2024-02-18T13:52:35.762Z,13.14
2024-02-18T13:55:02.952Z,13.13
2024-02-18T13:57:29.651Z,13.03
2024-02-18T13:59:57.815Z,13.02
2024-02-18T14:02:24.709Z,12.96
2024-02-18T14:04:52.577Z,12.91
2024-02-18T14:07:21.406Z,12.85
2024-02-18T14:09:50.068Z,12.89
2024-02-18T14:12:17.140Z,12.92
2024-02-18T14:14:49.440Z,12.93
2024-02-18T14:17:16.571Z,12.91
2024-02-18T14:19:43.495Z,12.96
2024-02-18T14:22:10.458Z,12.93
2024-02-18T14:24:37.296Z,12.91
2024-02-18T14:27:04.599Z,12.84
2024-02-18T14:29:31.317Z,12.79
2024-02-18T14:31:57.910Z,12.79
2024-02-18T14:34:24.660Z,12.78
2024-02-18T14:36:51.430Z,12.74
2024-02-18T14:39:18.171Z,12.71
2024-02-18T14:41:44.812Z,12.68
2024-02-18T14:44:11.489Z,12.67
2024-02-18T14:46:38.088Z,12.71
2024-02-18T14:49:04.780Z,12.55
2024-02-18T14:51:31.542Z,12.64
2024-02-18T14:53:58.197Z,12.62
2024-02-18T14:56:24.856Z,12.59
2024-02-18T14:58:51.437Z,12.60
2024-02-18T15:01:20.029Z,12.57
2024-02-18T15:03:46.885Z,12.55
2024-02-18T15:06:14.013Z,12.48
2024-02-18T15:08:40.939Z,12.38
2024-02-18T15:11:07.814Z,12.38
2024-02-18T15:13:34.529Z,12.27
2024-02-18T15:16:01.103Z,12.19
2024-02-18T15:18:27.903Z,12.12
2024-02-18T15:20:54.582Z,12.07
2024-02-18T15:23:21.430Z,11.91
2024-02-18T15:25:52.234Z,11.85
2024-02-18T15:28:19.311Z,11.73
2024-02-18T15:30:46.813Z,11.62
2024-02-18T15:33:13.605Z,11.50
2024-02-18T15:35:41.429Z,11.41
2024-02-18T15:38:08.401Z,11.34
2024-02-18T15:40:35.195Z,11.05
2024-02-18T15:43:02.539Z,10.79
2024-02-18T15:45:29.405Z,10.80
2024-02-18T15:47:57.465Z,10.80
2024-02-18T15:50:24.553Z,10.66
2024-02-18T15:52:51.361Z,10.59
2024-02-18T15:55:20.135Z,10.53
2024-02-18T15:57:47.125Z,10.36
2024-02-18T16:00:15.005Z,10.31
2024-02-18T16:02:41.672Z,10.03
2024-02-18T16:05:08.928Z,9.98
2024-02-18T16:07:35.681Z,9.77
2024-02-18T16:10:02.596Z,9.53
2024-02-18T16:12:29.336Z,9.37
2024-02-18T16:14:55.917Z,9.26
2024-02-18T16:17:25.021Z,9.24
2024-02-18T16:19:53.139Z,9.04
2024-02-18T16:22:19.982Z,8.92
2024-02-18T16:24:48.287Z,8.83
2024-02-18T16:27:14.982Z,8.79
2024-02-18T16:29:41.645Z,8.74
2024-02-18T16:32:10.471Z,8.68
2024-02-18T16:34:37.243Z,8.46
2024-02-18T16:37:04.259Z,8.42
2024-02-18T16:39:36.054Z,8.41
2024-02-18T16:42:04.060Z,8.28
2024-02-18T16:44:30.900Z,8.22
2024-02-18T16:46:57.657Z,8.18
2024-02-18T16:49:24.421Z,8.15
2024-02-18T16:51:51.128Z,8.17
2024-02-18T16:54:17.873Z,8.14
2024-02-18T16:56:44.446Z,8.18
2024-02-18T16:59:11.010Z,8.21
2024-02-18T17:01:37.782Z,8.21
2024-02-18T17:04:04.717Z,8.16
2024-02-18T17:06:31.718Z,8.16
2024-02-18T17:08:58.376Z,8.12
2024-02-18T17:11:24.992Z,8.07
2024-02-18T17:13:53.241Z,8.07
2024-02-18T17:16:20.097Z,8.15
2024-02-18T17:18:46.924Z,8.17
2024-02-18T17:21:13.601Z,8.22
2024-02-18T17:23:40.139Z,8.31
2024-02-18T17:26:06.855Z,8.34
2024-02-18T17:28:33.517Z,8.29
2024-02-18T17:31:00.287Z,8.33
2024-02-18T17:33:28.780Z,8.22
2024-02-18T17:35:55.520Z,8.22
2024-02-18T17:38:22.161Z,8.27
2024-02-18T17:40:48.847Z,8.32
2024-02-18T17:43:15.576Z,8.32
2024-02-18T17:45:42.456Z,8.33
2024-02-18T17:48:09.761Z,8.31
2024-02-18T17:50:39.711Z,8.21
2024-02-18T17:53:08.070Z,8.16
2024-02-18T17:55:34.667Z,8.10
2024-02-18T17:58:01.576Z,8.06
2024-02-18T18:00:29.289Z,7.96
2024-02-18T18:02:58.116Z,7.96
2024-02-18T18:05:24.881Z,7.93
2024-02-18T18:07:55.747Z,7.91
2024-02-18T18:10:23.823Z,7.92
2024-02-18T18:12:55.758Z,7.92
2024-02-18T18:15:23.663Z,7.95
2024-02-18T18:17:50.648Z,7.94
2024-02-18T18:20:17.663Z,7.87
2024-02-18T18:22:49.059Z,7.76
2024-02-18T18:25:16.366Z,7.72
2024-02-18T18:27:43.415Z,7.61
2024-02-18T18:30:10.412Z,7.51
2024-02-18T18:32:37.296Z,7.41
2024-02-18T18:35:05.488Z,7.31
2024-02-18T18:37:32.683Z,7.28
2024-02-18T18:40:00.610Z,7.27
2024-02-18T18:42:28.492Z,7.18
2024-02-18T18:44:55.096Z,7.02
2024-02-18T18:47:21.714Z,6.91
2024-02-18T18:49:52.658Z,6.72
2024-02-18T18:52:19.604Z,6.41
2024-02-18T18:54:46.347Z,6.21
2024-02-18T18:57:14.081Z,6.24
2024-02-18T18:59:40.947Z,6.24
2024-02-18T19:02:07.832Z,6.16
2024-02-18T19:04:34.636Z,6.12
2024-02-18T19:07:04.345Z,5.95
2024-02-18T19:09:34.489Z,5.96
2024-02-18T19:12:01.460Z,5.88
2024-02-18T19:14:28.605Z,5.86
2024-02-18T19:16:55.909Z,5.83
2024-02-18T19:19:25.613Z,5.79
2024-02-18T19:22:00.286Z,5.86
2024-02-18T19:24:27.902Z,5.82
2024-02-18T19:26:54.518Z,5.90
2024-02-18T19:29:24.116Z,5.96
2024-02-18T19:31:55.454Z,6.05
2024-02-18T19:34:22.271Z,6.12
2024-02-18T19:36:51.620Z,6.22
2024-02-18T19:39:18.751Z,6.28
2024-02-18T19:41:47.178Z,6.33
2024-02-18T19:44:14.674Z,6.38
2024-02-18T19:46:42.280Z,6.38
2024-02-18T19:49:12.755Z,6.33
2024-02-18T19:51:48.885Z,6.26
2024-02-18T19:54:15.948Z,6.23
2024-02-18T19:56:43.637Z,6.15
2024-02-18T19:59:12.055Z,6.03
2024-02-18T20:01:38.988Z,6.00
2024-02-18T20:04:05.816Z,5.99
2024-02-18T20:06:32.638Z,5.89
2024-02-18T20:08:59.789Z,5.90
2024-02-18T20:11:29.777Z,5.76
2024-02-18T20:13:58.131Z,5.70
2024-02-18T20:16:24.822Z,5.67
2024-02-18T20:18:53.074Z,5.58
2024-02-18T20:21:20.637Z,5.52
2024-02-18T20:23:47.301Z,5.55
2024-02-18T20:26:20.411Z,5.52
2024-02-18T20:28:48.008Z,5.44
2024-02-18T20:31:21.286Z,5.42
2024-02-18T20:33:49.306Z,5.40
2024-02-18T20:36:17.800Z,5.39
2024-02-18T20:38:45.845Z,5.44
2024-02-18T20:41:13.036Z,5.41
2024-02-18T20:43:39.645Z,5.42
2024-02-18T20:46:06.431Z,5.46
2024-02-18T20:48:33.224Z,5.51
2024-02-18T20:50:59.888Z,5.55
2024-02-18T20:53:26.500Z,5.61
2024-02-18T20:55:53.043Z,5.67
2024-02-18T20:58:21.075Z,5.67
2024-02-18T21:00:48.460Z,5.67
2024-02-18T21:03:15.834Z,5.72
2024-02-18T21:05:43.660Z,5.75
2024-02-18T21:08:10.284Z,5.78
2024-02-18T21:10:36.966Z,5.79
2024-02-18T21:13:04.108Z,5.79
2024-02-18T21:15:30.823Z,5.79
2024-02-18T21:18:00.244Z,5.74
2024-02-18T21:20:27.285Z,5.69
2024-02-18T21:22:54.160Z,5.66
2024-02-18T21:25:21.287Z,5.66
2024-02-18T21:27:47.972Z,5.65
2024-02-18T21:30:14.802Z,5.65
2024-02-18T21:32:41.485Z,5.59
2024-02-18T21:35:08.500Z,5.48
2024-02-18T21:37:38.538Z,5.44
2024-02-18T21:40:07.193Z,5.27
2024-02-18T21:42:35.676Z,5.16
2024-02-18T21:45:02.686Z,5.11
2024-02-18T21:47:29.350Z,5.07
2024-02-18T21:49:56.237Z,5.06
2024-02-18T21:52:23.180Z,5.04
2024-02-18T21:54:51.115Z,5.04
2024-02-18T21:57:20.917Z,5.02
2024-02-18T21:59:47.492Z,4.87
2024-02-18T22:02:14.248Z,4.88
2024-02-18T22:04:41.200Z,4.85
2024-02-18T22:07:16.302Z,4.86
2024-02-18T22:09:45.717Z,4.88
2024-02-18T22:12:12.745Z,4.92
2024-02-18T22:14:39.388Z,4.87
2024-02-18T22:17:07.548Z,4.73
2024-02-18T22:19:34.543Z,4.72
2024-02-18T22:22:01.560Z,4.73
2024-02-18T22:24:28.692Z,4.72
2024-02-18T22:26:55.503Z,4.71
2024-02-18T22:29:22.472Z,4.71
2024-02-18T22:31:49.001Z,4.59
2024-02-18T22:34:18.750Z,4.56
2024-02-18T22:36:45.581Z,4.57
2024-02-18T22:39:13.529Z,4.58
2024-02-18T22:41:42.891Z,4.56
2024-02-18T22:44:09.486Z,4.56
2024-02-18T22:46:36.123Z,4.46
2024-02-18T22:49:03.168Z,4.40
2024-02-18T22:51:29.932Z,4.44
2024-02-18T22:53:56.593Z,4.41
2024-02-18T22:56:23.211Z,4.41
2024-02-18T22:58:50.507Z,4.42
2024-02-18T23:01:17.142Z,4.44
2024-02-18T23:03:43.869Z,4.40
2024-02-18T23:06:10.555Z,4.48
2024-02-18T23:08:40.726Z,4.41
2024-02-18T23:11:09.027Z,4.34
2024-02-18T23:13:35.900Z,4.27
2024-02-18T23:16:02.736Z,4.28
2024-02-18T23:18:29.488Z,4.28
2024-02-18T23:20:56.231Z,4.23
2024-02-18T23:23:22.849Z,4.24
2024-02-18T23:25:49.479Z,4.26
2024-02-18T23:28:16.215Z,4.26
2024-02-18T23:30:43.126Z,4.28
2024-02-18T23:33:09.927Z,4.33
2024-02-18T23:35:36.521Z,4.37
2024-02-18T23:38:05.226Z,4.39
2024-02-18T23:40:33.044Z,4.37
2024-02-18T23:43:00.022Z,4.35
2024-02-18T23:45:26.683Z,4.33
2024-02-18T23:47:53.322Z,4.33
2024-02-18T23:50:19.900Z,4.32
2024-02-18T23:52:46.539Z,4.35
2024-02-18T23:55:13.218Z,4.36
2024-02-18T23:57:39.859Z,4.37
